Flight Track Log - Related Links

Times and Time Zones

All times are in EDT time to prevent confusion due to time zone crossing. See the N85JE flight status page for this flight to view local times or setup timezone preferences in your user account.

Time Position Orientation Groundspeed Altitude Reporting Facility
EDT Latitude Longitude Course Direction KTS MPH feet Rate Location/Type
Fri 10:39:57 AM 26.2600 -81.7792 343° North 253 291 6,900  Level FlightAware ADS-B (KEYW)
Fri 10:40:18 AM 26.2817 -81.7847 355° North 234 269 8,800 4,026 Climbing FlightAware ADS-B (KEYW)
Fri 10:41:13 AM 26.3379 -81.7923 353° North 253 291 12,000 3,300 Climbing FlightAware ADS-B (KEYW)
Fri 10:41:58 AM 26.4005 -81.8010 353° North 272 313 14,300 2,933 Climbing FlightAware ADS-B (KEYW)
Fri 10:42:43 AM 26.4583 -81.8091 353° North 289 333 16,400 2,214 Climbing FlightAware ADS-B (KEYW)
Fri 10:43:22 AM 26.5114 -81.8165 353° North 332 382 17,400 667 Climbing FlightAware ADS-B (KEYW)
Fri 10:44:13 AM 26.6000 -81.8289 353° North 386 444 17,400  Level FlightAware ADS-B (KEYW)
Fri 10:44:52 AM 26.6695 -81.8386 354° North 385 443 17,400  Level FlightAware ADS-B (KEYW)
Fri 10:45:08 AM 26.6975 -81.8424 353° North 383 441 17,400  Level FlightAware ADS-B
Fri 10:45:44 AM 26.7615 -81.8514 353° North 380 437 17,400  Level FlightAware ADS-B (KEYW)
Fri 10:46:05 AM 26.7927 -81.8557 353° North 373 429 17,400  Level FlightAware ADS-B (KEYW)
Fri 10:46:48 AM 26.8699 -81.8664 353° North 372 428 17,400  Level FlightAware ADS-B
Fri 10:47:50 AM 26.9766 -81.8814 353° North 370 426 17,400  Level FlightAware ADS-B
Fri 10:48:33 AM 27.0508 -81.8918 353° North 371 427 17,400  Level FlightAware ADS-B
Fri 10:49:19 AM 27.1288 -81.9028 353° North 371 427 17,400  Level FlightAware ADS-B
Fri 10:49:59 AM 27.1966 -81.9123 353° North 371 427 17,400  Level FlightAware ADS-B
Fri 10:50:40 AM 27.2636 -81.9218 353° North 372 428 17,400  Level FlightAware ADS-B
Fri 10:51:05 AM 27.3070 -81.9279 353° North 371 427 17,400  Level FlightAware ADS-B (KEYW)
Fri 10:52:03 AM 27.3867 -81.9391 353° North 372 428 17,400  Level FlightAware ADS-B
Fri 10:52:40 AM 27.4687 -81.9508 353° North 371 427 17,400  Level FlightAware ADS-B
Fri 10:53:21 AM 27.5424 -81.9612 353° North 370 426 17,400  Level FlightAware ADS-B
Fri 10:54:50 AM 27.6937 -81.9827 353° North 369 425 17,400  Level FlightAware ADS-B
Fri 10:55:48 AM 27.7925 -81.9968 353° North 369 425 17,400  Level FlightAware ADS-B
Fri 10:57:41 AM 27.9816 -82.0237 353° North 368 423 17,400  Level FlightAware ADS-B
Fri 10:58:20 AM 28.0514 -82.0336 353° North 369 425 17,400  Level FlightAware ADS-B
Fri 10:59:23 AM 28.1450 -82.0471 353° North 370 426 17,400  Level FlightAware ADS-B
Fri 11:00:05 AM 28.2299 -82.0593 353° North 371 427 17,400  Level FlightAware ADS-B
Fri 11:00:43 AM 28.2943 -82.0685 353° North 371 427 17,400  Level FlightAware ADS-B
Fri 11:01:52 AM 28.4033 -82.0842 353° North 370 426 17,400  Level FlightAware ADS-B
Fri 11:02:27 AM 28.4713 -82.0940 353° North 370 426 17,400  Level FlightAware ADS-B
Fri 11:03:14 AM 28.5516 -82.1056 353° North 370 426 17,400 -67 Level FlightAware ADS-B
Fri 11:03:57 AM 28.6233 -82.1159 353° North 374 430 17,300 -1,008 Descending FlightAware ADS-B
Fri 11:05:19 AM 28.7713 -82.1373 353° North 390 449 15,300 -1,476 Descending FlightAware ADS-B
Fri 11:06:03 AM 28.8439 -82.1479 353° North 389 448 14,200 -1,346 Descending FlightAware ADS-B
Fri 11:07:06 AM 28.9411 -82.1620 353° North 379 436 12,900 -1,145 Descending FlightAware ADS-B
Fri 11:08:56 AM 29.1499 -82.1839 North 365 420 10,900 -1,274 Descending FlightAware ADS-B
Fri 11:09:32 AM 29.1997 -82.1861 North 349 402 9,800 -1,973 Descending Jacksonville Center
Fri 11:10:09 AM 29.2561 -82.1833 North 352 405 8,500 -1,869 Descending Jacksonville Center
Fri 11:10:33 AM 29.2853 -82.1806 North 296 341 7,900 -1,500 Descending Jacksonville Center
Fri 11:11:09 AM 29.3314 -82.1803 360° North 306 352 7,000 -1,433 Descending Jacksonville Center
Fri 11:11:40 AM 29.3669 -82.1800 360° North 239 275 6,300 -1,574 Descending Jacksonville Center
Fri 11:12:10 AM 29.4003 -82.1797 360° North 268 308 5,400 -1,869 Descending Jacksonville Center
Fri 11:12:41 AM 29.4358 -82.1819 357° North 249 287 4,400 -1,932 Descending Jacksonville Center
Fri 11:13:09 AM 29.4733 -82.1817 360° North 254 292 3,500 -1,967 Descending Jacksonville Center
Fri 11:13:42 AM 29.5131 -82.1792 North 278 320 2,400 -1,574 Descending Jacksonville Center
Fri 11:14:10 AM 29.5464 -82.1692 15° North 254 292 1,900 -857 Descending Jacksonville Center
Fri 11:14:38 AM 29.5756 -82.1667 North 254 292 1,600 -295 Descending Jacksonville Center
Fri 11:15:11 AM 29.6111 -82.1664 360° North 248 285 1,600 100 Level Jacksonville Center
Fri 11:15:38 AM 29.6361 -82.1686 356° North 185 213 1,700 -198 Climbing Jacksonville Center
Fri 11:16:42 AM 29.6694 -82.1850 337° Northwest 122 140 1,300 -336 Descending Jacksonville Center
Fri 11:17:43 AM 29.6781 -82.2208 285° West 135 155 1,000 -295 Descending Jacksonville Center
Fri 11:18:44 AM 29.6825 -82.2447 282° West 137 158 700 -295 Descending Jacksonville Center

Login

Don't have an account? Register now (free) for customized features, flight alerts, and more!